Terminal Aerodrome Forecast
Issued by NWS

Home | Current Version | Previous Version | Graphics & Text | Print | Product List | Glossary On
Versions: 1 2 3 4 5 6 7 8 9 10 11 12 13 14 15 16 17 18 19
000
FTUS43 KICT 301720
TAFSLN
TAF
KSLN 301720Z 3018/0118 28015G23KT P6SM SCT025 BKN035
      TEMPO 3018/3022 BKN025
     FM010100 30009KT P6SM BKN035
     FM010600 30011KT P6SM OVC015
     FM011600 32015G23KT P6SM BKN025=

USA.gov is the U.S. government's official web portal to all federal, state and local government web resources and services.